createdAt,value
2018-07-04T00:01:17.265Z,99.90
2018-07-04T00:03:58.694Z,99.90
2018-07-04T00:06:38.153Z,99.90
2018-07-04T00:09:17.563Z,99.90
2018-07-04T00:11:56.927Z,99.90
2018-07-04T00:14:36.309Z,99.90
2018-07-04T00:17:15.754Z,99.90
2018-07-04T00:19:55.773Z,99.90
2018-07-04T00:22:35.145Z,99.90
2018-07-04T00:25:14.381Z,99.90
2018-07-04T00:27:54.453Z,99.90
2018-07-04T00:30:33.749Z,99.90
2018-07-04T00:33:13.133Z,99.90
2018-07-04T00:35:52.509Z,99.90
2018-07-04T00:38:31.921Z,99.90
2018-07-04T00:41:12.241Z,99.90
2018-07-04T00:43:52.681Z,99.90
2018-07-04T00:46:32.037Z,99.90
2018-07-04T00:49:11.390Z,99.90
2018-07-04T00:51:50.674Z,99.90
2018-07-04T00:54:30.133Z,99.90
2018-07-04T00:57:09.554Z,99.90
2018-07-04T00:59:48.920Z,99.90
2018-07-04T01:02:28.363Z,99.90
2018-07-04T01:05:07.606Z,99.90
2018-07-04T01:07:47.882Z,99.90
2018-07-04T01:10:27.230Z,99.90
2018-07-04T01:13:09.329Z,99.90
2018-07-04T01:15:48.674Z,99.90
2018-07-04T01:18:28.098Z,99.90
2018-07-04T01:21:07.474Z,99.90
2018-07-04T01:23:46.909Z,99.90
2018-07-04T01:26:26.407Z,99.90
2018-07-04T01:29:05.877Z,99.90
2018-07-04T01:31:45.110Z,99.90
2018-07-04T01:34:24.505Z,99.90
2018-07-04T01:37:03.846Z,99.90
2018-07-04T01:39:43.294Z,99.90
2018-07-04T01:42:22.487Z,99.90
2018-07-04T01:45:01.823Z,99.90
2018-07-04T01:47:41.274Z,99.90
2018-07-04T01:50:20.562Z,99.90
2018-07-04T01:52:59.930Z,99.90
2018-07-04T01:55:39.174Z,99.90
2018-07-04T01:58:19.346Z,99.90
2018-07-04T02:00:58.782Z,99.90
2018-07-04T02:03:38.302Z,99.90
2018-07-04T02:06:17.698Z,99.90
2018-07-04T02:08:57.169Z,99.90
2018-07-04T02:11:36.429Z,99.90
2018-07-04T02:14:15.801Z,99.90
2018-07-04T02:16:55.142Z,99.90
2018-07-04T02:19:34.652Z,99.90
2018-07-04T02:22:15.028Z,99.90
2018-07-04T02:24:54.241Z,99.90
2018-07-04T02:27:33.643Z,99.90
2018-07-04T02:30:12.897Z,99.90
2018-07-04T02:32:52.245Z,99.90
2018-07-04T02:35:32.445Z,99.90
2018-07-04T02:38:11.914Z,99.90
2018-07-04T02:40:51.233Z,99.90
2018-07-04T02:43:30.694Z,99.90
2018-07-04T02:46:11.148Z,99.90
2018-07-04T02:48:50.610Z,99.90
2018-07-04T02:51:30.030Z,99.90
2018-07-04T02:54:09.466Z,99.90
2018-07-04T02:56:48.691Z,99.90
2018-07-04T02:59:28.238Z,99.90
2018-07-04T03:02:08.646Z,99.90
2018-07-04T03:04:47.937Z,99.90
2018-07-04T03:07:27.361Z,99.90
2018-07-04T03:10:06.610Z,99.90
2018-07-04T03:12:45.974Z,99.90
2018-07-04T03:15:25.217Z,99.90
2018-07-04T03:18:04.710Z,99.90
2018-07-04T03:20:44.981Z,99.90
2018-07-04T03:23:24.356Z,99.90
2018-07-04T03:26:03.661Z,99.90
2018-07-04T03:28:43.830Z,99.90
2018-07-04T03:31:23.174Z,99.90
2018-07-04T03:34:02.584Z,99.90
2018-07-04T03:36:42.666Z,99.90
2018-07-04T03:39:22.049Z,99.90
2018-07-04T03:42:01.472Z,99.90
2018-07-04T03:44:40.909Z,99.90
2018-07-04T03:47:20.253Z,99.90
2018-07-04T03:49:59.699Z,99.90
2018-07-04T03:52:39.117Z,99.90
2018-07-04T03:55:18.389Z,99.90
2018-07-04T03:57:57.796Z,99.90
2018-07-04T04:00:37.019Z,99.90
2018-07-04T04:03:16.398Z,99.90
2018-07-04T04:05:55.683Z,99.90
2018-07-04T04:08:36.131Z,99.90
2018-07-04T04:11:15.398Z,99.90
2018-07-04T04:13:54.765Z,99.90
2018-07-04T04:16:34.401Z,99.90
2018-07-04T04:19:13.751Z,99.90
2018-07-04T04:21:54.146Z,99.90
2018-07-04T04:24:33.639Z,99.90
2018-07-04T04:27:13.168Z,99.90
2018-07-04T04:29:52.313Z,99.90
2018-07-04T04:32:31.687Z,99.90
2018-07-04T04:35:10.934Z,99.90
2018-07-04T04:37:50.189Z,99.90
2018-07-04T04:40:29.536Z,99.90
2018-07-04T04:43:09.021Z,99.90
2018-07-04T04:45:48.283Z,99.90
2018-07-04T04:48:28.352Z,99.90
2018-07-04T04:51:07.789Z,99.90
2018-07-04T04:53:47.229Z,99.90
2018-07-04T04:56:26.449Z,99.90
2018-07-04T04:59:05.963Z,99.90
2018-07-04T05:01:45.129Z,99.90
2018-07-04T05:04:24.526Z,99.90
2018-07-04T05:07:03.745Z,99.90
2018-07-04T05:09:43.109Z,99.90
2018-07-04T05:12:22.529Z,99.90
2018-07-04T05:15:01.946Z,99.90
2018-07-04T05:17:41.442Z,99.90
2018-07-04T05:20:20.892Z,99.90
2018-07-04T05:23:00.353Z,99.90
2018-07-04T05:25:40.747Z,99.90
2018-07-04T05:28:21.454Z,99.90
2018-07-04T05:31:00.635Z,99.90
2018-07-04T05:33:40.073Z,99.90
2018-07-04T05:36:19.517Z,99.90
2018-07-04T05:38:59.938Z,99.90
2018-07-04T05:41:39.337Z,99.90
2018-07-04T05:44:18.818Z,99.90
2018-07-04T05:46:58.145Z,99.90
2018-07-04T05:49:37.500Z,99.90
2018-07-04T05:52:18.677Z,99.90
2018-07-04T05:54:58.040Z,99.90
2018-07-04T05:57:37.466Z,99.90
2018-07-04T06:00:16.755Z,99.90
2018-07-04T06:02:56.027Z,99.90
2018-07-04T06:05:35.385Z,99.90
2018-07-04T06:08:14.789Z,99.90
2018-07-04T06:10:55.124Z,99.90
2018-07-04T06:13:35.298Z,99.90
2018-07-04T06:16:14.513Z,99.90
2018-07-04T06:18:53.932Z,99.90
2018-07-04T06:21:33.178Z,99.90
2018-07-04T06:24:15.345Z,99.90
2018-07-04T06:26:54.785Z,99.90
2018-07-04T06:29:34.211Z,99.90
2018-07-04T06:32:13.601Z,99.90
2018-07-04T06:34:53.846Z,99.90
2018-07-04T06:37:32.678Z,99.90
2018-07-04T06:39:59.749Z,99.90
2018-07-04T06:42:26.790Z,99.90
2018-07-04T06:44:54.852Z,99.90
2018-07-04T06:47:21.894Z,99.90
2018-07-04T06:49:48.962Z,99.90
2018-07-04T06:52:16.001Z,99.90
2018-07-04T06:54:44.018Z,99.90
2018-07-04T06:57:11.094Z,99.90
2018-07-04T06:59:38.157Z,99.90
2018-07-04T07:02:06.970Z,99.90
2018-07-04T07:04:46.394Z,99.90
2018-07-04T07:07:25.785Z,99.90
2018-07-04T07:10:05.030Z,99.90
2018-07-04T07:12:45.274Z,99.90
2018-07-04T07:15:24.778Z,99.90
2018-07-04T07:18:04.163Z,99.90
2018-07-04T07:20:43.501Z,99.90
2018-07-04T07:23:22.848Z,99.90
2018-07-04T07:26:02.069Z,99.90
2018-07-04T07:28:41.455Z,99.90
2018-07-04T07:31:21.702Z,99.90
2018-07-04T07:34:01.129Z,99.90
2018-07-04T07:36:40.332Z,99.90
2018-07-04T07:39:19.830Z,99.90
2018-07-04T07:41:59.109Z,99.90
2018-07-04T07:44:38.488Z,99.90
2018-07-04T07:47:17.814Z,99.90
2018-07-04T07:49:58.802Z,99.90
2018-07-04T07:52:38.168Z,99.90
2018-07-04T07:55:17.446Z,99.90
2018-07-04T07:57:56.755Z,99.90
2018-07-04T08:00:36.265Z,99.90
2018-07-04T08:03:15.681Z,99.90
2018-07-04T08:05:56.159Z,99.90
2018-07-04T08:08:37.293Z,99.90
2018-07-04T08:11:17.306Z,99.90
2018-07-04T08:13:56.670Z,99.90
2018-07-04T08:16:36.977Z,99.90
2018-07-04T08:19:16.461Z,99.90
2018-07-04T08:21:55.632Z,99.90
2018-07-04T08:24:35.001Z,99.90
2018-07-04T08:27:15.002Z,99.90
2018-07-04T08:29:54.209Z,99.90
2018-07-04T08:32:33.614Z,99.90
2018-07-04T08:35:12.882Z,99.90
2018-07-04T08:37:53.914Z,99.90
2018-07-04T08:40:33.153Z,99.90
2018-07-04T08:43:12.552Z,99.90
2018-07-04T08:45:52.891Z,99.90
2018-07-04T08:48:32.309Z,99.90
2018-07-04T08:51:11.620Z,99.90
2018-07-04T08:53:50.963Z,99.90
2018-07-04T08:56:30.422Z,99.90
2018-07-04T08:59:09.785Z,99.90
2018-07-04T09:01:49.158Z,99.90
2018-07-04T09:04:30.582Z,99.90
2018-07-04T09:07:10.848Z,99.90
2018-07-04T09:09:50.264Z,99.90
2018-07-04T09:12:29.631Z,99.90
2018-07-04T09:15:08.888Z,99.90
2018-07-04T09:17:48.296Z,99.90
2018-07-04T09:20:27.621Z,99.90
2018-07-04T09:23:07.055Z,99.90
2018-07-04T09:25:47.369Z,99.90
2018-07-04T09:28:27.521Z,99.90
2018-07-04T09:31:06.793Z,99.90
2018-07-04T09:33:46.181Z,99.90
2018-07-04T09:36:25.488Z,99.90
2018-07-04T09:39:04.955Z,99.90
2018-07-04T09:41:44.815Z,99.90
2018-07-04T09:44:25.109Z,99.90
2018-07-04T09:47:05.611Z,99.90
2018-07-04T09:49:45.849Z,99.90
2018-07-04T09:52:27.221Z,99.90
2018-07-04T09:55:06.378Z,99.90
2018-07-04T09:57:46.574Z,99.90
2018-07-04T10:00:25.814Z,99.90
2018-07-04T10:03:05.257Z,99.90
2018-07-04T10:05:44.522Z,99.90
2018-07-04T10:08:23.822Z,99.90
2018-07-04T10:11:03.243Z,99.90
2018-07-04T10:13:42.613Z,99.90
2018-07-04T10:16:22.101Z,99.90
2018-07-04T10:19:01.493Z,99.90
2018-07-04T10:21:41.478Z,99.90
2018-07-04T10:24:20.905Z,99.90
2018-07-04T10:27:00.259Z,99.90
2018-07-04T10:29:39.673Z,99.90
2018-07-04T10:32:19.044Z,99.90
2018-07-04T10:34:58.434Z,99.90
2018-07-04T10:37:37.930Z,99.90
2018-07-04T10:40:17.197Z,99.90
2018-07-04T10:42:57.437Z,99.90
2018-07-04T10:45:37.515Z,99.90
2018-07-04T10:48:17.877Z,99.90
2018-07-04T10:50:57.376Z,99.90
2018-07-04T10:53:36.732Z,99.90
2018-07-04T10:56:16.814Z,99.90
2018-07-04T10:58:56.206Z,99.90
2018-07-04T11:01:36.334Z,99.90
2018-07-04T11:04:15.734Z,99.90
2018-07-04T11:06:56.005Z,97.80
2018-07-04T11:09:35.402Z,98.80
2018-07-04T11:12:14.765Z,98.50
2018-07-04T11:14:54.158Z,98.20
2018-07-04T11:17:33.557Z,97.40
2018-07-04T11:20:12.838Z,97.20
2018-07-04T11:22:53.065Z,96.80
2018-07-04T11:25:32.288Z,96.00
2018-07-04T11:28:11.733Z,97.10
2018-07-04T11:30:52.025Z,96.40
2018-07-04T11:33:31.393Z,93.60
2018-07-04T11:36:10.785Z,94.30
2018-07-04T11:38:50.268Z,92.70
2018-07-04T11:41:29.550Z,93.50
2018-07-04T11:44:08.917Z,93.10
2018-07-04T11:46:36.913Z,93.30
2018-07-04T11:49:03.990Z,93.20
2018-07-04T11:51:31.069Z,90.90
2018-07-04T11:54:00.458Z,91.40
2018-07-04T11:56:28.550Z,91.40
2018-07-04T11:58:55.582Z,89.30
2018-07-04T12:01:22.645Z,87.30
2018-07-04T12:04:02.034Z,87.60
2018-07-04T12:06:41.410Z,87.30
2018-07-04T12:09:08.469Z,86.30
2018-07-04T12:11:35.537Z,90.50
2018-07-04T12:14:03.533Z,91.40
2018-07-04T12:16:30.590Z,91.60
2018-07-04T12:18:57.652Z,92.90
2018-07-04T12:21:24.725Z,92.60
2018-07-04T12:23:51.790Z,91.50
2018-07-04T12:26:19.781Z,91.10
2018-07-04T12:28:46.842Z,90.90
2018-07-04T12:31:13.909Z,91.70
2018-07-04T12:33:40.973Z,90.40
2018-07-04T12:36:08.017Z,91.00
2018-07-04T12:38:36.030Z,91.50
2018-07-04T12:41:04.053Z,91.90
2018-07-04T12:43:32.168Z,90.70
2018-07-04T12:45:59.120Z,91.50
2018-07-04T12:48:26.202Z,91.60
2018-07-04T12:50:54.229Z,93.10
2018-07-04T12:53:22.245Z,94.50
2018-07-04T12:56:01.666Z,97.60
2018-07-04T12:58:41.033Z,98.60
2018-07-04T13:01:20.154Z,99.90
2018-07-04T13:03:59.565Z,99.90
2018-07-04T13:06:38.871Z,99.90
2018-07-04T13:09:18.259Z,99.90
2018-07-04T13:11:58.497Z,99.50
2018-07-04T13:14:37.901Z,99.90
2018-07-04T13:17:22.854Z,99.90
2018-07-04T13:20:02.354Z,99.90
2018-07-04T13:22:43.701Z,99.90
2018-07-04T13:25:22.993Z,99.90
2018-07-04T13:28:02.506Z,99.70
2018-07-04T13:30:42.777Z,96.40
2018-07-04T13:33:22.142Z,95.60
2018-07-04T13:36:01.422Z,95.20
2018-07-04T13:38:40.785Z,93.50
2018-07-04T13:41:20.154Z,93.00
2018-07-04T13:43:59.593Z,91.80
2018-07-04T13:46:39.002Z,91.40
2018-07-04T13:49:18.422Z,88.90
2018-07-04T13:51:57.924Z,88.90
2018-07-04T13:54:37.324Z,88.10
2018-07-04T13:57:17.790Z,87.50
2018-07-04T13:59:57.160Z,90.20
2018-07-04T14:02:37.343Z,87.30
2018-07-04T14:05:16.616Z,87.20
2018-07-04T14:07:55.913Z,87.20
2018-07-04T14:10:35.227Z,84.60
2018-07-04T14:13:15.469Z,85.00
2018-07-04T14:15:54.569Z,85.00
2018-07-04T14:18:34.913Z,80.70
2018-07-04T14:21:14.336Z,79.90
2018-07-04T14:23:53.727Z,79.00
2018-07-04T14:26:33.086Z,78.90
2018-07-04T14:29:12.513Z,76.90
2018-07-04T14:31:51.950Z,75.50
2018-07-04T14:34:31.420Z,73.30
2018-07-04T14:37:10.929Z,72.00
2018-07-04T14:39:50.238Z,72.20
2018-07-04T14:42:30.333Z,70.10
2018-07-04T14:45:09.873Z,70.00
2018-07-04T14:47:49.086Z,69.30
2018-07-04T14:50:28.547Z,68.10
2018-07-04T14:53:08.958Z,69.00
2018-07-04T14:55:48.283Z,71.00
2018-07-04T14:58:27.685Z,68.30
2018-07-04T15:01:08.894Z,66.20
2018-07-04T15:03:48.277Z,66.20
2018-07-04T15:06:27.426Z,66.30
2018-07-04T15:09:06.792Z,63.90
2018-07-04T15:11:47.780Z,61.20
2018-07-04T15:14:27.149Z,61.20
2018-07-04T15:17:06.549Z,56.90
2018-07-04T15:19:45.985Z,57.60
2018-07-04T15:22:25.406Z,56.60
2018-07-04T15:25:04.701Z,57.30
2018-07-04T15:27:43.967Z,54.80
2018-07-04T15:30:23.321Z,52.50
2018-07-04T15:33:02.766Z,52.50
2018-07-04T15:35:42.857Z,50.70
2018-07-04T15:38:22.297Z,52.00
2018-07-04T15:41:01.613Z,50.60
2018-07-04T15:43:40.977Z,50.40
2018-07-04T15:46:21.097Z,49.70
2018-07-04T15:49:00.524Z,49.70
2018-07-04T15:51:39.904Z,50.10
2018-07-04T15:54:19.421Z,49.40
2018-07-04T15:56:59.022Z,46.60
2018-07-04T15:59:38.545Z,47.80
2018-07-04T16:02:18.898Z,47.70
2018-07-04T16:04:58.206Z,47.30
2018-07-04T16:07:37.552Z,47.50
2018-07-04T16:10:16.955Z,47.50
2018-07-04T16:12:56.262Z,47.60
2018-07-04T16:15:35.409Z,48.70
2018-07-04T16:18:14.761Z,47.70
2018-07-04T16:20:54.023Z,48.50
2018-07-04T16:23:34.377Z,48.00
2018-07-04T16:26:13.557Z,49.50
2018-07-04T16:28:52.877Z,47.40
2018-07-04T16:31:32.391Z,49.10
2018-07-04T16:34:11.750Z,49.20
2018-07-04T16:36:51.044Z,49.80
2018-07-04T16:39:30.430Z,49.90
2018-07-04T16:42:10.834Z,48.20
2018-07-04T16:44:50.081Z,44.40
2018-07-04T16:47:29.501Z,43.40
2018-07-04T16:50:08.772Z,44.20
2018-07-04T16:52:48.055Z,45.40
2018-07-04T16:55:27.170Z,46.10
2018-07-04T16:58:06.608Z,46.50
2018-07-04T17:00:45.963Z,46.70
2018-07-04T17:03:25.389Z,46.60
2018-07-04T17:06:04.594Z,46.20
2018-07-04T17:08:44.028Z,47.00
2018-07-04T17:11:23.306Z,48.20
2018-07-04T17:14:02.829Z,49.40
2018-07-04T17:16:43.085Z,58.70
2018-07-04T17:19:22.507Z,61.90
2018-07-04T17:22:02.173Z,64.50
2018-07-04T17:24:43.529Z,67.10
2018-07-04T17:27:23.814Z,68.70
2018-07-04T17:30:03.130Z,69.90
2018-07-04T17:32:42.499Z,71.60
2018-07-04T17:35:21.929Z,73.60
2018-07-04T17:38:01.318Z,73.90
2018-07-04T17:40:40.548Z,73.20
2018-07-04T17:43:21.050Z,74.50
2018-07-04T17:46:00.301Z,74.80
2018-07-04T17:48:39.694Z,75.20
2018-07-04T17:51:19.198Z,76.50
2018-07-04T17:53:58.736Z,78.70
2018-07-04T17:56:37.970Z,78.90
2018-07-04T17:59:18.119Z,79.70
2018-07-04T18:01:57.544Z,79.60
2018-07-04T18:04:36.933Z,80.70
2018-07-04T18:07:16.298Z,81.20
2018-07-04T18:09:55.639Z,82.60
2018-07-04T18:12:35.091Z,83.30
2018-07-04T18:15:14.308Z,84.50
2018-07-04T18:17:54.536Z,87.60
2018-07-04T18:20:33.884Z,86.90
2018-07-04T18:23:13.287Z,88.60
2018-07-04T18:25:52.621Z,89.90
2018-07-04T18:28:34.039Z,89.70
2018-07-04T18:31:13.467Z,90.50
2018-07-04T18:33:52.880Z,91.40
2018-07-04T18:36:32.081Z,91.50
2018-07-04T18:39:13.491Z,91.80
2018-07-04T18:41:52.891Z,91.90
2018-07-04T18:44:32.299Z,92.30
2018-07-04T18:47:12.770Z,92.50
2018-07-04T18:49:52.862Z,93.70
2018-07-04T18:52:32.350Z,93.70
2018-07-04T18:55:11.686Z,94.50
2018-07-04T18:57:51.713Z,96.00
2018-07-04T19:00:31.114Z,96.00
2018-07-04T19:03:10.499Z,96.70
2018-07-04T19:05:49.844Z,97.30
2018-07-04T19:08:29.259Z,97.30
2018-07-04T19:11:09.595Z,96.90
2018-07-04T19:13:49.091Z,98.00
2018-07-04T19:16:28.324Z,99.10
2018-07-04T19:19:07.714Z,99.20
2018-07-04T19:21:47.086Z,99.90
2018-07-04T19:24:27.492Z,99.90
2018-07-04T19:27:08.593Z,99.90
2018-07-04T19:29:48.801Z,99.90
2018-07-04T19:32:28.124Z,99.90
2018-07-04T19:35:08.397Z,99.90
2018-07-04T19:37:48.696Z,99.90
2018-07-04T19:40:27.857Z,99.90
2018-07-04T19:43:07.178Z,99.90
2018-07-04T19:45:46.441Z,99.90
2018-07-04T19:48:25.829Z,99.90
2018-07-04T19:51:05.103Z,99.90
2018-07-04T19:53:44.479Z,99.90
2018-07-04T19:56:24.492Z,99.90
2018-07-04T19:59:03.934Z,99.90
2018-07-04T20:01:44.161Z,99.90
2018-07-04T20:04:23.631Z,99.90
2018-07-04T20:07:02.910Z,99.90
2018-07-04T20:09:42.282Z,99.90
2018-07-04T20:12:21.758Z,99.90
2018-07-04T20:15:01.695Z,99.90
2018-07-04T20:17:41.070Z,99.90
2018-07-04T20:20:20.457Z,99.90
2018-07-04T20:22:59.843Z,99.90
2018-07-04T20:25:39.121Z,99.90
2018-07-04T20:28:18.452Z,99.90
2018-07-04T20:30:57.632Z,99.90
2018-07-04T20:33:37.033Z,99.90
2018-07-04T20:36:16.391Z,99.90
2018-07-04T20:38:55.974Z,99.90
2018-07-04T20:41:35.277Z,99.90
2018-07-04T20:44:14.628Z,99.90
2018-07-04T20:46:55.023Z,99.90
2018-07-04T20:49:35.166Z,99.90
2018-07-04T20:52:15.573Z,99.90
2018-07-04T20:54:54.793Z,99.90
2018-07-04T20:57:34.209Z,99.90
2018-07-04T21:00:14.453Z,99.90
2018-07-04T21:02:53.770Z,99.90
2018-07-04T21:05:33.121Z,99.90
2018-07-04T21:08:12.583Z,99.90
2018-07-04T21:10:52.821Z,99.90
2018-07-04T21:13:32.994Z,99.90
2018-07-04T21:16:12.340Z,99.90
2018-07-04T21:18:51.789Z,99.90
2018-07-04T21:21:31.177Z,99.90
2018-07-04T21:24:11.301Z,99.90
2018-07-04T21:26:50.614Z,99.90
2018-07-04T21:29:30.074Z,99.90
2018-07-04T21:32:09.553Z,99.90
2018-07-04T21:34:48.918Z,99.90
2018-07-04T21:37:28.438Z,99.90
2018-07-04T21:40:07.638Z,99.90
2018-07-04T21:42:47.922Z,99.90
2018-07-04T21:45:27.247Z,99.90
2018-07-04T21:48:06.677Z,99.90
2018-07-04T21:50:46.007Z,99.90
2018-07-04T21:53:25.374Z,99.90
2018-07-04T21:56:04.618Z,99.90
2018-07-04T21:58:43.997Z,99.90
2018-07-04T22:01:24.249Z,99.90
2018-07-04T22:04:04.084Z,99.90
2018-07-04T22:06:43.285Z,99.90
2018-07-04T22:09:23.606Z,99.90
2018-07-04T22:12:02.866Z,99.90
2018-07-04T22:14:42.309Z,99.90
2018-07-04T22:17:21.536Z,99.90
2018-07-04T22:20:00.797Z,99.90
2018-07-04T22:22:40.937Z,99.90
2018-07-04T22:25:20.181Z,99.90
2018-07-04T22:27:59.437Z,99.90
2018-07-04T22:30:38.875Z,99.90
2018-07-04T22:33:18.289Z,99.90
2018-07-04T22:35:58.387Z,99.90
2018-07-04T22:38:38.834Z,99.90
2018-07-04T22:41:18.227Z,99.90
2018-07-04T22:43:57.586Z,99.90
2018-07-04T22:46:36.952Z,99.90
2018-07-04T22:49:16.348Z,99.90
2018-07-04T22:51:56.623Z,99.90
2018-07-04T22:54:37.037Z,99.90
2018-07-04T22:57:16.377Z,99.90
2018-07-04T22:59:56.619Z,99.90
2018-07-04T23:02:36.017Z,99.90
2018-07-04T23:05:15.256Z,99.90
2018-07-04T23:07:54.780Z,99.90
2018-07-04T23:10:34.069Z,99.90
2018-07-04T23:13:14.385Z,99.90
2018-07-04T23:15:53.631Z,99.90
2018-07-04T23:18:33.020Z,99.90
2018-07-04T23:21:12.298Z,99.90
2018-07-04T23:23:51.708Z,99.90
2018-07-04T23:26:31.046Z,99.90
2018-07-04T23:29:12.426Z,99.90
2018-07-04T23:31:51.634Z,99.90
2018-07-04T23:34:31.060Z,99.90
2018-07-04T23:37:10.303Z,99.90
2018-07-04T23:39:49.765Z,99.90
2018-07-04T23:42:30.161Z,99.90
2018-07-04T23:45:09.430Z,99.90
2018-07-04T23:47:48.681Z,99.90
2018-07-04T23:50:28.064Z,99.90
2018-07-04T23:53:08.213Z,99.90
2018-07-04T23:55:47.484Z,99.90
2018-07-04T23:58:26.888Z,99.90
